createdAt,value
2023-09-30T00:00:06.705Z,12.19
2023-09-30T00:02:59.199Z,12.15
2023-09-30T00:05:29.243Z,12.13
2023-09-30T00:07:57.820Z,12.11
2023-09-30T00:10:26.305Z,12.09
2023-09-30T00:12:54.786Z,12.07
2023-09-30T00:15:23.706Z,12.06
2023-09-30T00:17:52.400Z,12.04
2023-09-30T00:20:20.994Z,12.01
2023-09-30T00:22:49.522Z,11.97
2023-09-30T00:25:18.005Z,11.95
2023-09-30T00:27:46.605Z,11.92
2023-09-30T00:30:15.806Z,11.89
2023-09-30T00:32:45.059Z,11.90
2023-09-30T00:35:14.254Z,11.89
2023-09-30T00:37:43.637Z,11.91
2023-09-30T00:40:15.504Z,11.87
2023-09-30T00:42:44.082Z,11.85
2023-09-30T00:45:13.629Z,11.83
2023-09-30T00:47:42.424Z,11.85
2023-09-30T00:50:13.590Z,11.86
2023-09-30T00:52:42.462Z,11.84
2023-09-30T00:55:12.219Z,11.83
2023-09-30T00:57:41.687Z,11.79
2023-09-30T01:00:13.635Z,11.78
2023-09-30T01:02:43.044Z,11.78
2023-09-30T01:05:11.766Z,11.77
2023-09-30T01:07:40.764Z,11.75
2023-09-30T01:10:09.906Z,11.74
2023-09-30T01:12:38.679Z,11.72
2023-09-30T01:15:08.562Z,11.69
2023-09-30T01:17:38.097Z,11.70
2023-09-30T01:20:08.267Z,11.74
2023-09-30T01:22:36.959Z,11.73
2023-09-30T01:25:05.913Z,11.73
2023-09-30T01:27:36.203Z,11.71
2023-09-30T01:30:05.366Z,11.69
2023-09-30T01:32:34.692Z,11.68
2023-09-30T01:35:03.768Z,11.70
2023-09-30T01:37:32.294Z,11.72
2023-09-30T01:40:01.097Z,11.70
2023-09-30T01:42:31.052Z,11.67
2023-09-30T01:44:59.508Z,11.64
2023-09-30T01:47:28.927Z,11.62
2023-09-30T01:49:57.401Z,11.62
2023-09-30T01:52:25.947Z,11.59
2023-09-30T01:54:55.631Z,11.58
2023-09-30T01:57:24.263Z,11.55
2023-09-30T01:59:53.279Z,11.51
2023-09-30T02:02:21.930Z,11.48
2023-09-30T02:04:51.566Z,11.48
2023-09-30T02:07:20.140Z,11.48
2023-09-30T02:09:48.813Z,11.47
2023-09-30T02:12:17.672Z,11.44
2023-09-30T02:14:47.942Z,11.39
2023-09-30T02:17:16.377Z,11.37
2023-09-30T02:19:45.513Z,11.40
2023-09-30T02:22:14.066Z,11.39
2023-09-30T02:24:42.764Z,11.36
2023-09-30T02:27:11.247Z,11.33
2023-09-30T02:29:39.790Z,11.31
2023-09-30T02:32:08.729Z,11.30
2023-09-30T02:34:37.205Z,11.33
2023-09-30T02:37:05.789Z,11.32
2023-09-30T02:39:34.361Z,11.31
2023-09-30T02:42:03.012Z,11.29
2023-09-30T02:44:31.597Z,11.27
2023-09-30T02:47:00.178Z,11.26
2023-09-30T02:49:29.015Z,11.30
2023-09-30T02:51:57.706Z,11.27
2023-09-30T02:54:26.189Z,11.27
2023-09-30T02:56:56.255Z,11.26
2023-09-30T02:59:24.878Z,11.23
2023-09-30T03:01:53.597Z,11.24
2023-09-30T03:04:27.383Z,11.27
2023-09-30T03:06:57.681Z,11.27
2023-09-30T03:09:27.473Z,11.26
2023-09-30T03:12:00.598Z,11.24
2023-09-30T03:14:32.350Z,11.22
2023-09-30T03:17:00.999Z,11.21
2023-09-30T03:19:29.568Z,11.18
2023-09-30T03:21:58.147Z,11.15
2023-09-30T03:24:28.444Z,11.09
2023-09-30T03:26:56.946Z,11.09
2023-09-30T03:29:25.425Z,11.09
2023-09-30T03:31:53.968Z,11.08
2023-09-30T03:34:22.600Z,11.09
2023-09-30T03:36:51.740Z,11.09
2023-09-30T03:39:28.151Z,11.07
2023-09-30T03:41:59.188Z,11.02
2023-09-30T03:44:27.870Z,11.02
2023-09-30T03:46:56.585Z,11.01
2023-09-30T03:49:25.090Z,11.01
2023-09-30T03:51:55.004Z,11.01
2023-09-30T03:54:24.350Z,10.99
2023-09-30T03:56:52.829Z,10.94
2023-09-30T03:59:21.627Z,10.94
2023-09-30T04:01:50.415Z,10.94
2023-09-30T04:04:19.577Z,10.95
2023-09-30T04:06:48.926Z,10.94
2023-09-30T04:09:17.608Z,10.91
2023-09-30T04:11:46.226Z,10.88
2023-09-30T04:14:14.713Z,10.88
2023-09-30T04:16:43.567Z,10.89
2023-09-30T04:19:12.237Z,10.90
2023-09-30T04:21:40.827Z,10.87
2023-09-30T04:24:10.600Z,10.86
2023-09-30T04:26:39.665Z,10.84
2023-09-30T04:29:11.837Z,10.88
2023-09-30T04:31:40.748Z,10.87
2023-09-30T04:34:09.370Z,10.86
2023-09-30T04:36:38.068Z,10.87
2023-09-30T04:39:06.806Z,10.90
2023-09-30T04:41:35.313Z,10.92
2023-09-30T04:44:05.323Z,10.94
2023-09-30T04:46:35.252Z,10.93
2023-09-30T04:49:03.765Z,10.94
2023-09-30T04:51:34.563Z,10.97
2023-09-30T04:54:04.979Z,11.03
2023-09-30T04:56:33.613Z,11.06
2023-09-30T04:59:02.552Z,11.06
2023-09-30T05:01:31.008Z,11.07
2023-09-30T05:04:00.974Z,11.07
2023-09-30T05:06:29.951Z,11.12
2023-09-30T05:08:58.519Z,11.16
2023-09-30T05:11:27.713Z,11.18
2023-09-30T05:13:56.518Z,11.20
2023-09-30T05:16:26.899Z,11.22
2023-09-30T05:18:55.899Z,11.26
2023-09-30T05:21:24.468Z,11.33
2023-09-30T05:23:52.989Z,11.40
2023-09-30T05:26:21.469Z,11.44
2023-09-30T05:28:50.204Z,11.45
2023-09-30T05:31:18.901Z,11.51
2023-09-30T05:33:47.658Z,11.57
2023-09-30T05:36:16.384Z,11.68
2023-09-30T05:38:44.992Z,11.79
2023-09-30T05:41:15.516Z,11.89
2023-09-30T05:43:44.921Z,12.00
2023-09-30T05:46:14.497Z,12.12
2023-09-30T05:48:43.813Z,12.24
2023-09-30T05:51:16.308Z,12.33
2023-09-30T05:53:44.790Z,12.44
2023-09-30T05:56:13.358Z,12.58
2023-09-30T05:58:43.016Z,12.73
2023-09-30T06:01:12.327Z,12.87
2023-09-30T06:03:41.328Z,13.04
2023-09-30T06:06:17.393Z,13.20
2023-09-30T06:08:46.720Z,13.30
2023-09-30T06:11:31.640Z,13.40
2023-09-30T06:14:03.502Z,13.57
2023-09-30T06:16:33.108Z,13.68
2023-09-30T06:19:01.848Z,13.85
2023-09-30T06:21:30.953Z,14.03
2023-09-30T06:23:59.531Z,14.21
2023-09-30T06:26:30.338Z,14.37
2023-09-30T06:28:59.765Z,14.54
2023-09-30T06:31:29.868Z,14.73
2023-09-30T06:33:59.887Z,14.92
2023-09-30T06:36:28.846Z,15.06
2023-09-30T06:38:57.516Z,15.20
2023-09-30T06:41:26.907Z,15.46
2023-09-30T06:43:55.387Z,15.72
2023-09-30T06:46:25.379Z,15.92
2023-09-30T06:48:54.279Z,16.18
2023-09-30T06:51:23.040Z,16.40
2023-09-30T06:53:51.622Z,16.63
2023-09-30T06:56:20.196Z,16.91
2023-09-30T06:58:48.676Z,17.17
2023-09-30T07:01:20.415Z,17.41
2023-09-30T07:03:49.063Z,17.65
2023-09-30T07:06:25.395Z,17.91
2023-09-30T07:08:54.374Z,18.21
2023-09-30T07:11:30.585Z,18.50
2023-09-30T07:13:59.276Z,18.80
2023-09-30T07:16:27.864Z,19.13
2023-09-30T07:18:56.926Z,19.47
2023-09-30T07:21:26.292Z,19.75
2023-09-30T07:23:54.876Z,19.99
2023-09-30T07:26:27.144Z,20.23
2023-09-30T07:28:57.927Z,20.65
2023-09-30T07:31:27.299Z,21.08
2023-09-30T07:33:56.038Z,21.37
2023-09-30T07:36:24.916Z,21.67
2023-09-30T07:38:54.377Z,21.63
2023-09-30T07:41:22.891Z,21.79
2023-09-30T07:43:51.679Z,21.40
2023-09-30T07:46:21.066Z,21.19
2023-09-30T07:48:49.690Z,20.92
2023-09-30T07:51:18.507Z,20.76
2023-09-30T07:53:47.031Z,20.72
2023-09-30T07:56:16.280Z,20.47
2023-09-30T07:58:44.880Z,20.48
2023-09-30T08:01:13.706Z,20.83
2023-09-30T08:03:42.841Z,21.02
2023-09-30T08:06:11.398Z,21.18
2023-09-30T08:08:40.466Z,21.12
2023-09-30T08:11:09.279Z,20.95
2023-09-30T08:13:38.102Z,21.19
2023-09-30T08:16:06.660Z,21.49
2023-09-30T08:18:35.156Z,21.54
2023-09-30T08:21:03.750Z,21.53
2023-09-30T08:23:32.495Z,21.92
2023-09-30T08:26:01.018Z,21.99
2023-09-30T08:28:29.463Z,22.03
2023-09-30T08:31:03.630Z,22.24
2023-09-30T08:33:32.619Z,22.14
2023-09-30T08:36:09.786Z,22.07
2023-09-30T08:38:42.317Z,22.33
2023-09-30T08:41:12.114Z,22.60
2023-09-30T08:43:41.713Z,22.49
2023-09-30T08:46:11.097Z,22.21
2023-09-30T08:48:39.771Z,22.33
2023-09-30T08:51:09.780Z,22.35
2023-09-30T08:53:38.980Z,22.35
2023-09-30T08:56:11.762Z,22.32
2023-09-30T08:58:40.659Z,22.40
2023-09-30T09:01:11.428Z,22.43
2023-09-30T09:03:40.629Z,22.43
2023-09-30T09:06:09.549Z,22.45
2023-09-30T09:08:39.434Z,22.66
2023-09-30T09:11:08.173Z,22.81
2023-09-30T09:13:52.174Z,22.82
2023-09-30T09:16:20.837Z,22.79
2023-09-30T09:18:49.916Z,22.87
2023-09-30T09:21:22.217Z,22.87
2023-09-30T09:23:53.304Z,22.73
2023-09-30T09:26:33.155Z,22.87
2023-09-30T09:29:04.134Z,23.15
2023-09-30T09:31:35.945Z,23.21
2023-09-30T09:34:14.455Z,23.28
2023-09-30T09:36:50.004Z,23.47
2023-09-30T09:39:32.174Z,23.58
2023-09-30T09:42:02.822Z,23.78
2023-09-30T09:44:32.636Z,24.34
2023-09-30T09:47:04.978Z,24.35
2023-09-30T09:49:34.202Z,24.36
2023-09-30T09:52:03.484Z,24.57
2023-09-30T09:54:33.802Z,24.72
2023-09-30T09:57:04.866Z,24.61
2023-09-30T09:59:33.965Z,24.45
2023-09-30T10:02:08.433Z,24.66
2023-09-30T10:04:39.060Z,24.97
2023-09-30T10:07:12.278Z,25.21
2023-09-30T10:09:46.840Z,25.29
2023-09-30T10:12:17.458Z,25.04
2023-09-30T10:14:46.149Z,25.30
2023-09-30T10:17:14.815Z,25.41
2023-09-30T10:20:28.215Z,25.29
2023-09-30T10:23:27.086Z,25.65
2023-09-30T10:26:15.049Z,26.52
2023-09-30T10:28:50.628Z,26.57
2023-09-30T10:31:22.115Z,26.09
2023-09-30T10:34:03.049Z,26.25
2023-09-30T10:36:32.850Z,26.50
2023-09-30T10:39:02.522Z,26.49
2023-09-30T10:41:46.532Z,26.88
2023-09-30T10:44:28.150Z,26.56
2023-09-30T10:47:01.784Z,26.68
2023-09-30T10:49:30.390Z,26.85
2023-09-30T10:52:03.379Z,27.06
2023-09-30T10:54:34.589Z,26.67
2023-09-30T10:57:05.143Z,26.41
2023-09-30T10:59:36.800Z,26.48
2023-09-30T11:02:20.815Z,26.38
2023-09-30T11:04:49.839Z,26.44
2023-09-30T11:07:27.847Z,26.37
2023-09-30T11:09:57.360Z,26.49
2023-09-30T11:12:27.037Z,26.86
2023-09-30T11:15:04.102Z,27.28
2023-09-30T11:17:32.839Z,27.66
2023-09-30T11:20:01.712Z,27.63
2023-09-30T11:22:30.349Z,27.46
2023-09-30T11:24:58.962Z,27.42
2023-09-30T11:27:28.638Z,27.44
2023-09-30T11:29:57.589Z,27.27
2023-09-30T11:32:30.872Z,27.57
2023-09-30T11:34:59.665Z,27.86
2023-09-30T11:37:35.164Z,27.71
2023-09-30T11:40:11.879Z,28.04
2023-09-30T11:42:41.163Z,28.67
2023-09-30T11:45:24.204Z,28.61
2023-09-30T11:47:53.450Z,28.38
2023-09-30T11:50:22.181Z,28.59
2023-09-30T11:52:50.708Z,28.66
2023-09-30T11:55:21.813Z,28.38
2023-09-30T11:57:51.922Z,28.71
2023-09-30T12:00:20.653Z,28.61
2023-09-30T12:02:49.269Z,28.51
2023-09-30T12:05:18.228Z,28.33
2023-09-30T12:07:48.655Z,27.99
2023-09-30T12:10:17.293Z,27.53
2023-09-30T12:12:46.206Z,27.65
2023-09-30T12:15:15.075Z,27.95
2023-09-30T12:17:43.533Z,28.66
2023-09-30T12:20:12.432Z,28.93
2023-09-30T12:22:41.023Z,28.48
2023-09-30T12:25:09.875Z,28.53
2023-09-30T12:27:41.157Z,28.49
2023-09-30T12:30:10.113Z,28.76
2023-09-30T12:32:41.161Z,28.98
2023-09-30T12:35:09.991Z,28.89
2023-09-30T12:37:39.944Z,29.30
2023-09-30T12:40:09.403Z,28.97
2023-09-30T12:42:38.156Z,28.86
2023-09-30T12:45:07.372Z,28.77
2023-09-30T12:47:35.926Z,28.82
2023-09-30T12:50:04.749Z,28.93
2023-09-30T12:52:34.210Z,28.75
2023-09-30T12:55:03.685Z,28.54
2023-09-30T12:57:33.251Z,28.53
2023-09-30T13:00:01.797Z,28.35
2023-09-30T13:02:30.455Z,28.54
2023-09-30T13:04:59.149Z,28.27
2023-09-30T13:07:27.892Z,28.05
2023-09-30T13:09:58.356Z,28.20
2023-09-30T13:12:27.841Z,28.22
2023-09-30T13:14:57.387Z,27.72
2023-09-30T13:17:26.652Z,27.22
2023-09-30T13:19:56.388Z,26.76
2023-09-30T13:22:25.457Z,26.77
2023-09-30T13:24:54.204Z,26.86
2023-09-30T13:27:23.322Z,27.08
2023-09-30T13:29:55.996Z,27.26
2023-09-30T13:32:24.397Z,27.07
2023-09-30T13:34:53.675Z,26.92
2023-09-30T13:37:22.363Z,26.83
2023-09-30T13:39:51.584Z,26.62
2023-09-30T13:42:20.444Z,26.64
